createdAt,value
2018-08-22T00:00:18.849Z,19.83
2018-08-22T00:02:48.458Z,19.79
2018-08-22T00:05:17.825Z,19.82
2018-08-22T00:07:47.223Z,19.84
2018-08-22T00:10:16.626Z,19.74
2018-08-22T00:12:45.990Z,19.57
2018-08-22T00:15:15.391Z,19.66
2018-08-22T00:17:44.772Z,19.69
2018-08-22T00:20:14.176Z,19.70
2018-08-22T00:22:43.558Z,19.78
2018-08-22T00:25:12.938Z,19.77
2018-08-22T00:27:42.728Z,19.72
2018-08-22T00:30:12.111Z,19.76
2018-08-22T00:32:41.481Z,19.72
2018-08-22T00:35:10.878Z,19.75
2018-08-22T00:37:40.250Z,19.76
2018-08-22T00:40:09.602Z,19.75
2018-08-22T00:42:38.989Z,19.81
2018-08-22T00:45:08.339Z,19.67
2018-08-22T00:47:37.694Z,19.62
2018-08-22T00:50:07.089Z,19.60
2018-08-22T00:52:36.521Z,19.61
2018-08-22T00:55:05.927Z,19.61
2018-08-22T00:57:35.313Z,19.65
2018-08-22T01:00:04.697Z,19.70
2018-08-22T01:02:34.066Z,19.73
2018-08-22T01:05:03.455Z,19.74
2018-08-22T01:07:32.824Z,19.75
2018-08-22T01:10:02.185Z,19.80
2018-08-22T01:12:31.638Z,19.71
2018-08-22T01:15:01.000Z,19.68
2018-08-22T01:17:30.375Z,19.64
2018-08-22T01:19:59.742Z,19.55
2018-08-22T01:22:29.106Z,19.55
2018-08-22T01:24:58.457Z,19.64
2018-08-22T01:27:27.820Z,19.64
2018-08-22T01:29:57.234Z,19.65
2018-08-22T01:32:26.628Z,19.69
2018-08-22T01:34:55.973Z,19.72
2018-08-22T01:37:25.365Z,19.66
2018-08-22T01:39:54.752Z,19.66
2018-08-22T01:42:24.118Z,19.60
2018-08-22T01:44:53.485Z,19.52
2018-08-22T01:47:22.852Z,19.50
2018-08-22T01:49:52.235Z,19.54
2018-08-22T01:52:21.577Z,19.57
2018-08-22T01:54:50.954Z,19.66
2018-08-22T01:57:20.326Z,19.72
2018-08-22T01:59:49.721Z,19.63
2018-08-22T02:02:19.078Z,19.72
2018-08-22T02:04:48.461Z,19.70
2018-08-22T02:07:17.826Z,19.74
2018-08-22T02:09:47.209Z,19.70
2018-08-22T02:12:16.574Z,19.69
2018-08-22T02:14:45.934Z,19.71
2018-08-22T02:17:15.317Z,19.64
2018-08-22T02:19:44.678Z,19.60
2018-08-22T02:22:14.039Z,19.67
2018-08-22T02:24:43.406Z,19.72
2018-08-22T02:27:12.762Z,19.71
2018-08-22T02:29:42.117Z,19.68
2018-08-22T02:32:11.486Z,19.60
2018-08-22T02:34:40.841Z,19.67
2018-08-22T02:37:10.235Z,19.70
2018-08-22T02:39:39.638Z,19.64
2018-08-22T02:42:09.034Z,19.57
2018-08-22T02:44:38.470Z,19.60
2018-08-22T02:47:07.930Z,19.61
2018-08-22T02:49:37.295Z,19.63
2018-08-22T02:52:06.739Z,19.64
2018-08-22T02:54:36.141Z,19.61
2018-08-22T02:57:05.581Z,19.51
2018-08-22T02:59:34.954Z,19.45
2018-08-22T03:02:04.339Z,19.44
2018-08-22T03:04:33.702Z,19.48
2018-08-22T03:07:03.110Z,19.37
2018-08-22T03:09:32.477Z,19.44
2018-08-22T03:12:01.866Z,19.43
2018-08-22T03:14:31.331Z,19.48
2018-08-22T03:17:00.706Z,19.43
2018-08-22T03:19:30.075Z,19.39
2018-08-22T03:27:01.894Z,19.30
2018-08-22T03:29:32.194Z,19.25
2018-08-22T03:32:01.556Z,19.23
2018-08-22T03:34:30.922Z,19.23
2018-08-22T03:37:00.294Z,19.22
2018-08-22T03:39:29.698Z,19.18
2018-08-22T03:41:59.107Z,19.10
2018-08-22T03:44:28.465Z,19.14
2018-08-22T03:46:57.837Z,19.09
2018-08-22T03:49:27.194Z,19.09
2018-08-22T03:51:56.579Z,18.94
2018-08-22T03:54:25.922Z,18.85
2018-08-22T03:56:55.282Z,18.82
2018-08-22T03:59:24.683Z,18.78
2018-08-22T04:01:54.042Z,18.75
2018-08-22T04:04:23.393Z,18.68
2018-08-22T04:06:52.770Z,18.48
2018-08-22T04:09:22.134Z,18.30
2018-08-22T04:11:51.494Z,18.26
2018-08-22T04:14:20.862Z,18.30
2018-08-22T04:16:50.237Z,18.31
2018-08-22T04:19:19.603Z,18.22
2018-08-22T04:21:48.944Z,18.02
2018-08-22T04:24:18.317Z,17.96
2018-08-22T04:26:47.665Z,17.96
2018-08-22T04:29:17.001Z,18.04
2018-08-22T04:31:46.373Z,18.05
2018-08-22T04:34:15.869Z,18.09
2018-08-22T04:36:45.223Z,18.12
2018-08-22T04:39:14.654Z,18.04
2018-08-22T04:41:44.011Z,18.00
2018-08-22T04:44:13.369Z,18.03
2018-08-22T04:46:42.735Z,17.99
2018-08-22T04:49:12.090Z,18.05
2018-08-22T04:51:41.429Z,18.06
2018-08-22T04:54:10.805Z,18.16
2018-08-22T04:56:40.155Z,18.19
2018-08-22T04:59:09.514Z,18.16
2018-08-22T05:01:38.901Z,18.20
2018-08-22T05:04:08.253Z,18.21
2018-08-22T05:06:37.658Z,18.28
2018-08-22T05:09:08.739Z,18.34
2018-08-22T05:11:38.941Z,18.27
2018-08-22T05:14:08.349Z,18.33
2018-08-22T05:16:37.715Z,18.38
2018-08-22T05:19:07.154Z,18.40
2018-08-22T05:21:36.631Z,18.46
2018-08-22T05:24:06.054Z,18.53
2018-08-22T05:26:35.409Z,18.64
2018-08-22T05:29:04.807Z,18.71
2018-08-22T05:31:34.178Z,18.70
2018-08-22T05:34:03.562Z,18.72
2018-08-22T05:36:32.970Z,18.75
2018-08-22T05:39:02.421Z,18.70
2018-08-22T05:41:31.798Z,18.78
2018-08-22T05:44:01.145Z,18.81
2018-08-22T05:46:30.503Z,18.84
2018-08-22T05:48:59.878Z,18.92
2018-08-22T05:51:29.304Z,18.85
2018-08-22T05:53:58.683Z,18.95
2018-08-22T05:56:28.065Z,19.03
2018-08-22T05:58:57.422Z,19.09
2018-08-22T06:01:26.835Z,19.20
2018-08-22T06:03:56.201Z,19.34
2018-08-22T06:06:25.575Z,19.42
2018-08-22T06:08:54.966Z,19.44
2018-08-22T06:11:25.025Z,19.49
2018-08-22T06:13:54.520Z,19.33
2018-08-22T06:16:23.919Z,19.38
2018-08-22T06:18:53.294Z,19.56
2018-08-22T06:21:22.668Z,19.64
2018-08-22T06:23:52.116Z,19.77
2018-08-22T06:26:21.618Z,19.91
2018-08-22T06:28:50.995Z,20.05
2018-08-22T06:31:20.368Z,20.07
2018-08-22T06:33:49.762Z,20.15
2018-08-22T06:36:19.176Z,20.31
2018-08-22T06:38:48.551Z,20.44
2018-08-22T06:41:18.012Z,20.62
2018-08-22T06:43:48.054Z,20.83
2018-08-22T06:46:17.459Z,21.01
2018-08-22T06:48:46.834Z,21.22
2018-08-22T06:51:16.246Z,21.43
2018-08-22T06:53:45.683Z,21.66
2018-08-22T06:56:15.077Z,21.86
2018-08-22T06:58:44.499Z,22.07
2018-08-22T07:01:13.874Z,22.33
2018-08-22T07:03:43.431Z,22.56
2018-08-22T07:06:12.792Z,22.83
2018-08-22T07:08:42.228Z,23.05
2018-08-22T07:11:11.692Z,23.20
2018-08-22T07:13:41.060Z,23.38
2018-08-22T07:16:10.459Z,23.54
2018-08-22T07:18:39.842Z,23.71
2018-08-22T07:21:09.203Z,23.89
2018-08-22T07:23:38.598Z,24.01
2018-08-22T07:26:07.974Z,24.11
2018-08-22T07:28:37.366Z,24.23
2018-08-22T07:31:06.866Z,24.39
2018-08-22T07:33:36.345Z,24.51
2018-08-22T07:36:05.787Z,24.57
2018-08-22T07:43:38.907Z,24.66
2018-08-22T07:46:08.344Z,24.51
2018-08-22T07:48:37.802Z,24.45
2018-08-22T07:51:07.190Z,24.29
2018-08-22T07:53:36.607Z,24.36
2018-08-22T07:56:05.978Z,24.21
2018-08-22T07:58:35.398Z,24.45
2018-08-22T08:01:04.816Z,24.49
2018-08-22T08:03:34.234Z,24.53
2018-08-22T08:06:03.673Z,24.71
2018-08-22T08:08:33.072Z,24.89
2018-08-22T08:11:02.500Z,24.94
2018-08-22T08:13:31.894Z,24.98
2018-08-22T08:16:01.294Z,25.14
2018-08-22T08:18:30.715Z,25.28
2018-08-22T08:21:00.105Z,25.23
2018-08-22T08:23:29.486Z,25.42
2018-08-22T08:25:58.897Z,25.46
2018-08-22T08:28:28.294Z,25.61
2018-08-22T08:30:57.716Z,25.60
2018-08-22T08:33:27.150Z,25.78
2018-08-22T08:35:56.659Z,25.98
2018-08-22T08:38:26.032Z,26.17
2018-08-22T08:40:55.518Z,26.28
2018-08-22T08:43:25.092Z,26.43
2018-08-22T08:45:55.343Z,26.53
2018-08-22T08:48:24.725Z,26.57
2018-08-22T08:50:54.378Z,26.57
2018-08-22T08:53:23.833Z,26.65
2018-08-22T08:55:53.437Z,26.50
2018-08-22T08:58:22.820Z,26.70
2018-08-22T09:00:52.480Z,26.84
2018-08-22T09:03:22.532Z,26.85
2018-08-22T09:05:52.024Z,27.02
2018-08-22T09:08:21.451Z,27.00
2018-08-22T09:10:50.864Z,26.92
2018-08-22T09:13:20.253Z,27.02
2018-08-22T09:15:49.649Z,26.93
2018-08-22T09:18:19.050Z,27.13
2018-08-22T09:20:48.462Z,27.20
2018-08-22T09:23:17.854Z,27.28
2018-08-22T09:25:47.347Z,27.48
2018-08-22T09:28:16.715Z,27.74
2018-08-22T09:30:46.121Z,27.89
2018-08-22T09:33:15.522Z,27.96
2018-08-22T09:35:44.934Z,28.10
2018-08-22T09:38:14.321Z,28.04
2018-08-22T09:40:43.730Z,28.11
2018-08-22T09:43:13.166Z,28.14
2018-08-22T09:45:42.571Z,28.35
2018-08-22T09:48:11.942Z,28.37
2018-08-22T09:50:41.385Z,28.65
2018-08-22T09:53:10.771Z,28.64
2018-08-22T09:55:40.169Z,28.52
2018-08-22T09:58:09.557Z,28.62
2018-08-22T10:00:44.282Z,28.89
2018-08-22T10:03:13.629Z,28.80
2018-08-22T10:05:43.002Z,28.95
2018-08-22T10:08:12.404Z,29.20
2018-08-22T10:10:41.790Z,29.36
2018-08-22T10:13:11.384Z,29.11
2018-08-22T10:15:40.842Z,29.42
2018-08-22T10:18:10.233Z,29.63
2018-08-22T10:20:39.601Z,29.81
2018-08-22T10:23:09.018Z,29.73
2018-08-22T10:25:38.446Z,29.77
2018-08-22T10:28:07.816Z,30.09
2018-08-22T10:30:37.210Z,30.26
2018-08-22T10:33:06.661Z,30.26
2018-08-22T10:35:36.059Z,29.96
2018-08-22T10:38:05.474Z,29.16
2018-08-22T10:40:34.867Z,29.16
2018-08-22T10:43:04.294Z,29.09
2018-08-22T10:45:33.674Z,29.06
2018-08-22T10:48:03.541Z,29.25
2018-08-22T10:50:32.890Z,29.29
2018-08-22T10:53:02.540Z,29.40
2018-08-22T10:55:31.989Z,29.51
2018-08-22T10:58:01.566Z,29.49
2018-08-22T11:00:31.042Z,29.51
2018-08-22T11:03:00.475Z,29.80
2018-08-22T11:05:29.870Z,29.71
2018-08-22T11:07:59.314Z,30.06
2018-08-22T11:10:28.689Z,30.15
2018-08-22T11:12:58.354Z,30.38
2018-08-22T11:15:28.262Z,30.55
2018-08-22T11:17:57.978Z,30.62
2018-08-22T11:20:29.226Z,30.95
2018-08-22T11:23:15.651Z,31.17
2018-08-22T11:26:02.230Z,31.06
2018-08-22T11:28:48.607Z,31.54
2018-08-22T11:31:35.211Z,31.47
2018-08-22T11:34:22.205Z,31.29
2018-08-22T11:37:00.776Z,31.41
2018-08-22T11:39:32.337Z,31.59
2018-08-22T11:42:01.927Z,31.96
2018-08-22T11:44:31.547Z,32.22
2018-08-22T11:47:01.267Z,32.13
2018-08-22T11:49:31.399Z,32.45
2018-08-22T11:52:00.978Z,33.08
2018-08-22T11:54:30.991Z,33.15
2018-08-22T11:57:00.818Z,33.46
2018-08-22T11:59:30.430Z,33.64
2018-08-22T12:01:59.948Z,33.29
2018-08-22T12:04:29.302Z,32.76
2018-08-22T12:06:58.687Z,32.75
2018-08-22T12:09:31.038Z,32.37
2018-08-22T12:12:00.425Z,31.81
2018-08-22T12:14:29.827Z,32.20
2018-08-22T12:16:59.222Z,32.20
2018-08-22T12:19:28.640Z,32.10
2018-08-22T12:21:58.039Z,32.21
2018-08-22T12:24:27.438Z,32.24
2018-08-22T12:26:56.842Z,32.57
2018-08-22T12:29:26.254Z,32.34
2018-08-22T12:31:55.654Z,32.33
2018-08-22T12:34:25.070Z,32.66
2018-08-22T12:36:54.486Z,32.55
2018-08-22T12:39:23.846Z,33.02
2018-08-22T12:41:53.225Z,33.68
2018-08-22T12:44:22.762Z,34.07
2018-08-22T12:46:52.117Z,34.27
2018-08-22T12:49:21.510Z,33.54
2018-08-22T12:51:50.910Z,33.51
2018-08-22T12:54:20.282Z,33.38
2018-08-22T12:56:49.660Z,33.19
2018-08-22T12:59:19.030Z,33.42
2018-08-22T13:01:48.765Z,33.82
2018-08-22T13:04:18.174Z,34.45
2018-08-22T13:06:47.544Z,34.74
2018-08-22T13:09:16.961Z,34.61
2018-08-22T13:11:46.373Z,34.16
2018-08-22T13:14:15.798Z,34.66
2018-08-22T13:16:45.222Z,35.29
2018-08-22T13:19:14.623Z,35.60
2018-08-22T13:21:43.998Z,35.63
2018-08-22T13:24:13.407Z,36.14
2018-08-22T13:26:42.811Z,36.57
2018-08-22T13:29:12.197Z,36.64
2018-08-22T13:31:41.650Z,36.69
2018-08-22T13:34:11.042Z,36.18
2018-08-22T13:36:40.441Z,35.87
2018-08-22T13:39:10.861Z,35.18
2018-08-22T13:41:40.222Z,35.51
2018-08-22T13:44:09.618Z,36.59
2018-08-22T13:46:39.007Z,35.60
2018-08-22T13:49:08.587Z,36.67
2018-08-22T13:51:37.987Z,38.51
2018-08-22T13:54:07.370Z,40.36
2018-08-22T13:56:36.781Z,41.58
2018-08-22T13:59:06.205Z,42.34
2018-08-22T14:01:35.605Z,42.54
2018-08-22T14:04:04.994Z,41.18
2018-08-22T14:06:34.386Z,41.66
2018-08-22T14:09:04.194Z,42.67
2018-08-22T14:11:33.594Z,42.98
2018-08-22T14:14:03.019Z,42.39
2018-08-22T14:16:32.415Z,39.62
2018-08-22T14:19:01.822Z,38.70
2018-08-22T14:21:31.202Z,40.00
2018-08-22T14:24:00.639Z,39.38
2018-08-22T14:26:30.209Z,37.92
2018-08-22T14:28:59.614Z,37.35
2018-08-22T14:31:29.007Z,36.70
2018-08-22T14:33:58.491Z,36.41
2018-08-22T14:36:27.903Z,37.59
2018-08-22T14:38:57.346Z,37.64
2018-08-22T14:41:26.714Z,38.81
2018-08-22T14:43:56.134Z,39.62
2018-08-22T14:46:25.542Z,38.79
2018-08-22T14:48:54.915Z,37.73
2018-08-22T14:51:24.315Z,37.51
2018-08-22T14:53:53.698Z,37.15
2018-08-22T14:56:23.163Z,36.48
2018-08-22T14:58:52.454Z,35.89
2018-08-22T15:01:21.851Z,35.62
2018-08-22T15:03:51.214Z,35.52
2018-08-22T15:06:20.690Z,35.34
2018-08-22T15:08:51.298Z,35.62
2018-08-22T15:11:20.709Z,36.09
2018-08-22T15:13:50.074Z,35.02
2018-08-22T15:16:19.491Z,34.47
2018-08-22T15:18:48.874Z,34.47
2018-08-22T15:21:18.250Z,34.54
2018-08-22T15:23:47.630Z,34.55
2018-08-22T15:26:17.002Z,34.95
2018-08-22T15:28:46.378Z,35.49
2018-08-22T15:31:15.802Z,35.44
2018-08-22T15:33:45.706Z,35.28
2018-08-22T15:36:15.437Z,35.20
2018-08-22T15:38:44.809Z,35.29
2018-08-22T15:41:14.249Z,35.18
2018-08-22T15:43:43.666Z,35.77
2018-08-22T15:46:13.065Z,36.48
2018-08-22T15:48:42.442Z,37.28
2018-08-22T15:51:11.931Z,38.48
2018-08-22T15:53:41.324Z,39.12
2018-08-22T15:56:10.738Z,39.73
2018-08-22T15:58:40.200Z,39.45
2018-08-22T16:01:09.629Z,38.24
2018-08-22T16:03:38.996Z,37.39
2018-08-22T16:06:08.392Z,36.54
2018-08-22T16:08:37.794Z,36.16
2018-08-22T16:11:07.370Z,36.12
2018-08-22T16:13:38.001Z,35.54
2018-08-22T16:16:07.447Z,35.60
2018-08-22T16:18:36.898Z,35.77
2018-08-22T16:21:07.814Z,35.68
2018-08-22T16:23:38.010Z,35.20
2018-08-22T16:26:07.397Z,34.75
2018-08-22T16:28:52.570Z,34.58
2018-08-22T16:31:23.602Z,35.74
2018-08-22T16:33:52.978Z,36.73
2018-08-22T16:36:27.583Z,38.21
2018-08-22T16:38:56.994Z,38.76
2018-08-22T16:41:26.374Z,39.72
2018-08-22T16:43:55.746Z,40.65
2018-08-22T16:46:25.178Z,41.37
2018-08-22T16:48:55.597Z,42.02
2018-08-22T16:51:25.270Z,42.46
2018-08-22T16:54:00.920Z,43.04
2018-08-22T16:56:33.190Z,42.36
2018-08-22T16:59:09.758Z,41.22
2018-08-22T17:01:42.561Z,41.08
2018-08-22T17:04:11.906Z,40.07
2018-08-22T17:06:41.273Z,39.96
2018-08-22T17:09:11.562Z,38.37
2018-08-22T17:14:01.866Z,38.80
2018-08-22T17:16:31.456Z,39.02
2018-08-22T17:19:00.858Z,38.31
2018-08-22T17:21:30.242Z,38.63
2018-08-22T17:23:59.635Z,39.35
2018-08-22T17:26:29.030Z,39.83
2018-08-22T17:28:59.622Z,40.04
2018-08-22T17:31:30.186Z,40.31
2018-08-22T17:34:01.883Z,40.19
2018-08-22T17:36:31.317Z,39.79
2018-08-22T17:39:01.617Z,39.77
2018-08-22T17:41:31.473Z,39.79
2018-08-22T17:44:08.423Z,39.66
2018-08-22T17:46:40.671Z,38.82
2018-08-22T17:49:10.040Z,38.50
2018-08-22T17:51:56.824Z,38.38
2018-08-22T17:54:26.629Z,37.69
2018-08-22T17:57:14.141Z,37.05
2018-08-22T17:59:44.474Z,36.23
2018-08-22T18:02:13.942Z,35.06
2018-08-22T18:04:59.978Z,34.24
2018-08-22T18:07:29.409Z,33.58
2018-08-22T18:09:58.862Z,33.07
2018-08-22T18:12:28.874Z,32.66
2018-08-22T18:15:00.997Z,32.06
2018-08-22T18:17:30.362Z,31.80
2018-08-22T18:19:59.955Z,31.00
2018-08-22T18:22:37.180Z,30.46
2018-08-22T18:25:07.422Z,30.06
2018-08-22T18:27:36.834Z,29.79
2018-08-22T18:30:09.460Z,29.65
2018-08-22T18:32:38.973Z,29.52
2018-08-22T18:35:10.285Z,29.29
2018-08-22T18:37:41.444Z,29.02
2018-08-22T18:40:22.036Z,28.80
2018-08-22T18:43:05.233Z,28.56
2018-08-22T18:45:35.609Z,28.34
2018-08-22T18:48:06.796Z,28.28
2018-08-22T18:50:36.989Z,28.27
2018-08-22T18:53:07.490Z,28.20
2018-08-22T18:55:37.983Z,28.16
2018-08-22T18:58:08.665Z,28.08
2018-08-22T19:00:39.577Z,27.99
2018-08-22T19:03:10.627Z,27.86
2018-08-22T19:05:40.860Z,27.70
2018-08-22T19:08:17.117Z,27.53
2018-08-22T19:10:50.390Z,27.29
2018-08-22T19:13:22.809Z,27.07
2018-08-22T19:15:57.951Z,26.92
2018-08-22T19:18:28.535Z,26.76
2018-08-22T19:21:01.957Z,26.64
2018-08-22T19:23:33.224Z,26.56
2018-08-22T19:26:06.366Z,26.39
2018-08-22T19:29:07.762Z,26.38
2018-08-22T19:31:43.977Z,26.18
2018-08-22T19:34:15.254Z,26.06
2018-08-22T19:36:47.226Z,25.97
2018-08-22T19:39:19.144Z,25.86
2018-08-22T19:41:50.455Z,25.74
2018-08-22T19:44:22.156Z,24.87
2018-08-22T19:46:54.584Z,25.54
2018-08-22T19:49:25.911Z,25.43
2018-08-22T19:51:57.493Z,25.05
2018-08-22T19:54:28.876Z,25.03
2018-08-22T19:56:59.791Z,24.98
2018-08-22T19:59:30.637Z,24.90
2018-08-22T20:02:00.915Z,24.80
2018-08-22T20:04:32.693Z,24.39
2018-08-22T20:07:04.561Z,24.20
2018-08-22T20:09:40.225Z,24.13
2018-08-22T20:12:11.312Z,24.15
2018-08-22T20:14:51.877Z,24.24
2018-08-22T20:17:28.929Z,24.33
2018-08-22T20:20:00.538Z,24.35
2018-08-22T20:22:36.256Z,24.33
2018-08-22T20:25:08.892Z,23.89
2018-08-22T20:27:39.984Z,23.85
2018-08-22T20:30:14.951Z,23.92
2018-08-22T20:33:01.208Z,23.94
2018-08-22T20:38:22.997Z,23.88
2018-08-22T20:40:57.771Z,23.72
2018-08-22T20:43:29.481Z,23.62
2018-08-22T20:45:59.850Z,23.60
2018-08-22T20:48:31.314Z,23.49
2018-08-22T20:51:01.611Z,23.12
2018-08-22T20:53:33.197Z,23.06
2018-08-22T20:56:03.551Z,23.06
2018-08-22T20:58:34.206Z,23.07
2018-08-22T21:01:04.784Z,23.09
2018-08-22T21:03:35.285Z,23.08
2018-08-22T21:06:10.016Z,22.84
2018-08-22T21:08:40.834Z,22.97
2018-08-22T21:11:11.947Z,22.90
2018-08-22T21:13:43.036Z,22.89
2018-08-22T21:16:13.622Z,22.77
2018-08-22T21:18:44.288Z,22.61
2018-08-22T21:21:22.200Z,22.50
2018-08-22T21:23:58.781Z,22.52
2018-08-22T21:30:15.329Z,22.51
2018-08-22T21:32:46.443Z,22.47
2018-08-22T21:35:24.160Z,22.40
2018-08-22T21:37:59.307Z,22.28
2018-08-22T21:40:29.879Z,22.21
2018-08-22T21:43:00.569Z,22.09
2018-08-22T21:45:31.131Z,22.05
2018-08-22T21:48:16.138Z,22.04
2018-08-22T21:50:48.349Z,21.93
2018-08-22T21:53:22.192Z,21.81
2018-08-22T21:55:55.698Z,21.76
2018-08-22T21:58:28.663Z,21.70
2018-08-22T22:01:04.025Z,21.53
2018-08-22T22:03:37.678Z,21.61
2018-08-22T22:06:11.671Z,21.52
2018-08-22T22:08:48.948Z,21.53
2018-08-22T22:11:22.448Z,21.54
2018-08-22T22:13:55.687Z,21.43
2018-08-22T22:16:31.634Z,21.38
2018-08-22T22:19:02.831Z,21.16
2018-08-22T22:21:32.467Z,21.06
2018-08-22T22:24:02.968Z,21.12
2018-08-22T22:26:33.813Z,21.21
2018-08-22T22:29:04.316Z,21.23
2018-08-22T22:31:35.094Z,21.22
2018-08-22T22:34:05.927Z,21.18
2018-08-22T22:36:38.609Z,21.12
2018-08-22T22:40:15.510Z,21.06
2018-08-22T22:42:45.583Z,20.84
2018-08-22T22:45:17.667Z,20.79
2018-08-22T22:47:48.878Z,20.71
2018-08-22T22:50:19.371Z,20.59
2018-08-22T22:52:50.314Z,20.65
2018-08-22T22:55:20.940Z,20.67
2018-08-22T22:57:51.399Z,20.55
2018-08-22T23:00:22.089Z,20.53
2018-08-22T23:02:57.898Z,20.55
2018-08-22T23:05:32.140Z,20.57
2018-08-22T23:08:04.211Z,20.56
2018-08-22T23:10:34.927Z,20.56
2018-08-22T23:13:06.047Z,20.56
2018-08-22T23:15:37.063Z,20.59
2018-08-22T23:18:08.300Z,20.59
2018-08-22T23:20:40.352Z,20.51
2018-08-22T23:23:28.634Z,20.49
2018-08-22T23:26:06.840Z,20.51
2018-08-22T23:28:38.281Z,20.46
2018-08-22T23:31:08.969Z,20.48
2018-08-22T23:33:39.466Z,20.47
2018-08-22T23:36:10.161Z,20.38
2018-08-22T23:38:40.555Z,20.29
2018-08-22T23:41:10.991Z,20.17
2018-08-22T23:43:46.433Z,20.16
2018-08-22T23:46:17.629Z,20.14
2018-08-22T23:48:54.705Z,20.12
2018-08-22T23:51:24.975Z,20.17
2018-08-22T23:54:00.744Z,20.11
2018-08-22T23:56:32.011Z,20.05
2018-08-22T23:59:02.195Z,20.01
